createdAt,value
2019-04-01T00:01:02.078Z,14.65
2019-04-01T00:02:36.373Z,17.62
2019-04-01T00:04:10.827Z,18.80
2019-04-01T00:05:44.443Z,19.50
2019-04-01T00:07:19.099Z,22.65
2019-04-01T00:08:53.343Z,22.07
2019-04-01T00:10:27.576Z,26.05
2019-04-01T00:12:01.867Z,24.75
2019-04-01T00:13:36.676Z,29.07
2019-04-01T00:15:10.876Z,28.80
2019-04-01T00:16:45.103Z,30.82
2019-04-01T00:18:19.329Z,25.82
2019-04-01T00:19:53.605Z,24.20
2019-04-01T00:21:27.822Z,24.60
2019-04-01T00:23:02.384Z,23.57
2019-04-01T00:24:36.937Z,22.50
2019-04-01T00:26:11.768Z,26.68
2019-04-01T00:27:46.002Z,21.48
2019-04-01T00:29:20.297Z,28.45
2019-04-01T00:30:54.039Z,26.17
2019-04-01T00:32:28.092Z,28.00
2019-04-01T00:34:02.313Z,25.02
2019-04-01T00:35:37.060Z,18.35
2019-04-01T00:37:10.736Z,15.10
2019-04-01T00:38:45.223Z,14.25
2019-04-01T00:40:19.522Z,15.30
2019-04-01T00:41:55.382Z,14.68
2019-04-01T00:43:40.146Z,15.05
2019-04-01T00:45:16.615Z,13.68
2019-04-01T00:46:50.240Z,12.87
2019-04-01T00:48:24.539Z,14.83
2019-04-01T00:49:58.867Z,15.63
2019-04-01T00:51:34.057Z,14.70
2019-04-01T00:53:08.272Z,14.75
2019-04-01T00:54:41.892Z,15.90
2019-04-01T00:56:15.592Z,14.27
2019-04-01T00:57:49.546Z,13.07
2019-04-01T00:59:23.824Z,14.83
2019-04-01T01:00:57.516Z,14.23
2019-04-01T01:02:31.854Z,15.60
2019-04-01T01:04:05.867Z,15.13
2019-04-01T01:05:39.511Z,16.20
2019-04-01T01:07:13.722Z,16.97
2019-04-01T01:08:47.377Z,17.93
2019-04-01T01:10:21.301Z,15.77
2019-04-01T01:11:55.001Z,17.60
2019-04-01T01:13:28.633Z,17.60
2019-04-01T01:15:02.384Z,17.87
2019-04-01T01:16:37.176Z,16.90
2019-04-01T01:18:10.801Z,16.10
2019-04-01T01:19:45.031Z,16.50
2019-04-01T01:21:18.697Z,16.90
2019-04-01T01:22:53.429Z,17.50
2019-04-01T01:24:27.065Z,19.57
2019-04-01T01:26:00.772Z,20.33
2019-04-01T01:27:34.523Z,16.27
2019-04-01T01:29:08.502Z,15.23
2019-04-01T01:30:42.105Z,15.50
2019-04-01T01:32:15.727Z,15.10
2019-04-01T01:33:50.061Z,13.93
2019-04-01T01:35:24.310Z,22.77
2019-04-01T01:36:58.061Z,25.93
2019-04-01T01:38:32.193Z,29.00
2019-04-01T01:40:06.306Z,30.33
2019-04-01T01:41:40.346Z,25.53
2019-04-01T01:43:14.096Z,30.13
2019-04-01T01:44:48.384Z,35.00
2019-04-01T01:46:22.030Z,34.17
2019-04-01T01:47:56.649Z,30.82
2019-04-01T01:49:30.380Z,31.43
2019-04-01T01:51:04.123Z,29.00
2019-04-01T01:52:38.372Z,25.35
2019-04-01T01:54:13.187Z,24.35
2019-04-01T01:55:47.433Z,21.12
2019-04-01T01:57:21.809Z,22.85
2019-04-01T01:58:55.497Z,22.60
2019-04-01T02:00:30.031Z,24.40
2019-04-01T02:02:04.401Z,17.48
2019-04-01T02:03:38.061Z,17.10
2019-04-01T02:05:11.698Z,17.13
2019-04-01T02:06:45.435Z,14.70
2019-04-01T02:08:19.199Z,15.83
2019-04-01T02:09:52.839Z,14.60
2019-04-01T02:11:26.473Z,15.07
2019-04-01T02:13:01.230Z,14.73
2019-04-01T02:14:34.905Z,13.83
2019-04-01T02:16:09.200Z,13.95
2019-04-01T02:17:43.467Z,15.38
2019-04-01T02:19:18.147Z,14.43
2019-04-01T02:20:52.370Z,14.00
2019-04-01T02:22:26.046Z,15.32
2019-04-01T02:24:00.308Z,13.93
2019-04-01T02:25:34.720Z,15.67
2019-04-01T02:27:08.480Z,16.60
2019-04-01T02:28:42.220Z,15.90
2019-04-01T02:30:16.517Z,16.90
2019-04-01T02:31:50.497Z,17.57
2019-04-01T02:33:24.738Z,19.00
2019-04-01T02:34:59.020Z,17.40
2019-04-01T02:36:33.289Z,17.90
2019-04-01T02:38:07.342Z,17.77
2019-04-01T02:39:41.026Z,19.00
2019-04-01T02:41:15.173Z,18.80
2019-04-01T02:42:49.401Z,18.65
2019-04-01T02:44:24.085Z,18.42
2019-04-01T02:45:57.739Z,19.03
2019-04-01T02:47:31.462Z,19.33
2019-04-01T02:49:05.103Z,18.90
2019-04-01T02:50:39.258Z,16.47
2019-04-01T02:52:12.948Z,17.70
2019-04-01T02:53:46.668Z,17.30
2019-04-01T02:55:20.298Z,16.60
2019-04-01T02:56:54.802Z,17.17
2019-04-01T02:58:31.188Z,16.23
2019-04-01T03:00:08.189Z,16.52
2019-04-01T03:01:42.406Z,15.32
2019-04-01T03:03:16.938Z,18.55
2019-04-01T03:04:51.627Z,21.35
2019-04-01T03:06:25.264Z,22.53
2019-04-01T03:07:59.491Z,30.70
2019-04-01T03:09:33.658Z,30.87
2019-04-01T03:11:10.463Z,32.40
2019-04-01T03:12:42.699Z,30.17
2019-04-01T03:14:16.449Z,29.87
2019-04-01T03:15:50.379Z,38.37
2019-04-01T03:17:24.683Z,42.23
2019-04-01T03:18:58.379Z,36.87
2019-04-01T03:20:32.573Z,39.15
2019-04-01T03:22:07.134Z,38.33
2019-04-01T03:23:41.354Z,36.20
2019-04-01T03:25:15.799Z,18.23
2019-04-01T03:26:51.515Z,14.73
2019-04-01T03:28:25.986Z,16.45
2019-04-01T03:29:59.683Z,15.87
2019-04-01T03:31:34.001Z,17.98
2019-04-01T03:33:07.656Z,19.57
2019-04-01T03:34:41.715Z,16.33
2019-04-01T03:36:15.446Z,16.43
2019-04-01T03:37:49.197Z,16.40
2019-04-01T03:39:22.821Z,16.87
2019-04-01T03:40:57.545Z,17.70
2019-04-01T03:42:31.758Z,18.27
2019-04-01T03:44:06.053Z,16.97
2019-04-01T03:45:40.360Z,18.35
2019-04-01T03:47:14.588Z,17.47
2019-04-01T03:48:48.855Z,14.30
2019-04-01T03:50:23.155Z,15.13
2019-04-01T03:51:57.431Z,15.40
2019-04-01T03:53:31.498Z,15.03
2019-04-01T03:55:06.344Z,16.17
2019-04-01T03:56:40.624Z,15.83
2019-04-01T03:58:14.316Z,15.40
2019-04-01T03:59:48.533Z,16.23
2019-04-01T04:01:22.155Z,16.20
2019-04-01T04:02:56.403Z,16.62
2019-04-01T04:04:30.711Z,16.97
2019-04-01T04:06:05.473Z,18.12
2019-04-01T04:07:39.206Z,16.83
2019-04-01T04:09:12.934Z,18.57
2019-04-01T04:10:46.601Z,18.43
2019-04-01T04:12:21.119Z,19.60
2019-04-01T04:13:55.333Z,20.25
2019-04-01T04:15:29.024Z,19.30
2019-04-01T04:17:02.754Z,19.20
2019-04-01T04:18:36.701Z,16.97
2019-04-01T04:20:10.343Z,18.23
2019-04-01T04:21:43.971Z,19.73
2019-04-01T04:23:17.711Z,17.77
2019-04-01T04:24:51.535Z,17.80
2019-04-01T04:26:25.204Z,18.30
2019-04-01T04:27:58.907Z,16.53
2019-04-01T04:29:33.121Z,17.80
2019-04-01T04:31:06.971Z,17.03
2019-04-01T04:32:40.668Z,16.03
2019-04-01T04:34:14.320Z,17.93
2019-04-01T04:35:47.948Z,18.10
2019-04-01T04:37:21.864Z,21.57
2019-04-01T04:38:55.567Z,19.17
2019-04-01T04:40:29.788Z,21.15
2019-04-01T04:42:03.430Z,18.40
2019-04-01T04:43:37.670Z,19.13
2019-04-01T04:45:12.162Z,20.60
2019-04-01T04:46:45.884Z,22.50
2019-04-01T04:48:19.623Z,24.30
2019-04-01T04:49:53.901Z,26.50
2019-04-01T04:51:27.615Z,27.57
2019-04-01T04:53:01.899Z,28.07
2019-04-01T04:54:35.602Z,22.77
2019-04-01T04:56:09.340Z,20.90
2019-04-01T04:57:42.988Z,19.57
2019-04-01T04:59:17.238Z,18.12
2019-04-01T05:00:51.292Z,18.63
2019-04-01T05:02:25.208Z,17.30
2019-04-01T05:03:58.917Z,15.70
2019-04-01T05:05:32.649Z,15.60
2019-04-01T05:07:06.358Z,16.60
2019-04-01T05:08:40.495Z,15.73
2019-04-01T05:10:14.417Z,15.20
2019-04-01T05:11:49.891Z,15.78
2019-04-01T05:13:23.525Z,15.93
2019-04-01T05:14:57.664Z,15.60
2019-04-01T05:16:32.636Z,17.20
2019-04-01T05:18:06.930Z,15.25
2019-04-01T05:19:41.203Z,15.58
2019-04-01T05:21:17.453Z,16.62
2019-04-01T05:22:52.075Z,16.15
2019-04-01T05:24:28.184Z,18.30
2019-04-01T05:26:03.204Z,17.52
2019-04-01T05:27:38.675Z,18.15
2019-04-01T05:29:15.181Z,16.62
2019-04-01T05:30:51.042Z,17.55
2019-04-01T05:32:27.162Z,17.57
2019-04-01T05:34:02.409Z,17.70
2019-04-01T05:35:36.721Z,17.50
2019-04-01T05:37:11.012Z,16.65
2019-04-01T05:38:45.243Z,18.60
2019-04-01T05:40:19.896Z,18.25
2019-04-01T05:41:54.122Z,19.77
2019-04-01T05:43:29.257Z,21.15
2019-04-01T05:45:04.457Z,22.07
2019-04-01T05:46:39.236Z,22.45
2019-04-01T05:48:14.537Z,29.00
2019-04-01T05:49:48.750Z,34.30
2019-04-01T05:51:22.967Z,30.23
2019-04-01T05:52:57.594Z,32.88
2019-04-01T05:54:31.815Z,31.20
2019-04-01T05:56:07.147Z,33.75
2019-04-01T05:57:41.385Z,29.23
2019-04-01T05:59:16.681Z,27.87
2019-04-01T06:00:55.273Z,31.30
2019-04-01T06:02:29.625Z,28.75
2019-04-01T06:04:04.789Z,30.88
2019-04-01T06:05:39.309Z,31.40
2019-04-01T06:07:13.610Z,30.20
2019-04-01T06:08:47.969Z,30.37
2019-04-01T06:10:22.251Z,30.75
2019-04-01T06:11:56.677Z,31.80
2019-04-01T06:13:30.921Z,31.75
2019-04-01T06:15:08.243Z,31.65
2019-04-01T06:16:42.519Z,30.75
2019-04-01T06:18:18.154Z,29.98
2019-04-01T06:19:52.388Z,30.23
2019-04-01T06:21:26.760Z,29.12
2019-04-01T06:23:00.944Z,27.32
2019-04-01T06:24:35.474Z,27.40
2019-04-01T06:26:10.111Z,33.55
2019-04-01T06:27:44.410Z,28.35
2019-04-01T06:29:18.978Z,31.65
2019-04-01T06:30:53.783Z,34.03
2019-04-01T06:32:28.092Z,41.18
2019-04-01T06:34:02.880Z,35.70
2019-04-01T06:35:37.212Z,62.25
2019-04-01T06:37:11.612Z,37.60
2019-04-01T06:38:45.889Z,54.65
2019-04-01T06:40:20.182Z,52.78
2019-04-01T06:41:54.515Z,54.45
2019-04-01T06:43:29.056Z,44.13
2019-04-01T06:45:04.258Z,40.35
2019-04-01T06:46:38.562Z,39.85
2019-04-01T06:48:12.932Z,46.77
2019-04-01T06:49:47.539Z,42.20
2019-04-01T06:51:21.886Z,42.30
2019-04-01T06:52:56.093Z,41.40
2019-04-01T06:54:30.425Z,40.73
2019-04-01T06:56:05.546Z,44.53
2019-04-01T06:57:39.846Z,46.85
2019-04-01T06:59:14.179Z,42.03
2019-04-01T07:00:48.409Z,41.35
2019-04-01T07:02:22.829Z,42.05
2019-04-01T07:03:57.069Z,39.30
2019-04-01T07:05:31.385Z,39.00
2019-04-01T07:07:18.336Z,37.48
2019-04-01T07:08:41.938Z,209.07
2019-04-01T07:10:16.250Z,96.67
2019-04-01T07:11:51.948Z,217.35
2019-04-01T07:13:26.331Z,33.80
2019-04-01T07:15:00.793Z,33.58
2019-04-01T07:16:35.643Z,30.00
2019-04-01T07:18:09.878Z,29.12
2019-04-01T07:19:45.865Z,97.30
2019-04-01T07:21:21.951Z,125.65
2019-04-01T07:22:56.230Z,42.33
2019-04-01T07:24:30.571Z,65.55
2019-04-01T07:26:04.894Z,42.48
2019-04-01T07:27:39.428Z,52.62
2019-04-01T07:29:13.723Z,24.10
2019-04-01T07:30:48.039Z,23.95
2019-04-01T07:32:22.242Z,25.72
2019-04-01T07:33:56.758Z,25.72
2019-04-01T07:35:31.345Z,22.60
2019-04-01T07:37:05.668Z,24.23
2019-04-01T07:38:40.978Z,24.43
2019-04-01T07:40:15.426Z,23.83
2019-04-01T07:41:49.640Z,23.95
2019-04-01T07:43:24.016Z,23.32
2019-04-01T07:44:58.857Z,23.83
2019-04-01T07:46:33.682Z,23.60
2019-04-01T07:48:07.913Z,24.23
2019-04-01T07:49:42.278Z,22.93
2019-04-01T07:51:16.813Z,27.15
2019-04-01T07:52:51.446Z,26.62
2019-04-01T07:54:25.679Z,27.20
2019-04-01T07:56:02.571Z,28.07
2019-04-01T07:57:35.882Z,27.70
2019-04-01T07:59:10.458Z,28.80
2019-04-01T08:00:45.135Z,27.05
2019-04-01T08:02:19.496Z,25.08
2019-04-01T08:03:53.830Z,24.77
2019-04-01T08:05:28.823Z,24.95
2019-04-01T08:07:03.212Z,23.62
2019-04-01T08:08:37.520Z,23.05
2019-04-01T08:10:11.894Z,25.08
2019-04-01T08:11:49.890Z,23.45
2019-04-01T08:13:22.500Z,19.67
2019-04-01T08:14:56.936Z,18.20
2019-04-01T08:16:31.204Z,18.77
2019-04-01T08:18:05.532Z,18.27
2019-04-01T08:19:40.226Z,19.12
2019-04-01T08:21:14.468Z,17.48
2019-04-01T08:22:48.785Z,18.25
2019-04-01T08:24:23.415Z,18.57
2019-04-01T08:25:57.763Z,21.15
2019-04-01T08:27:31.962Z,19.55
2019-04-01T08:29:06.234Z,20.82
2019-04-01T08:30:40.942Z,20.97
2019-04-01T08:32:15.174Z,19.27
2019-04-01T08:33:50.370Z,19.48
2019-04-01T08:35:24.779Z,19.87
2019-04-01T08:36:59.526Z,19.25
2019-04-01T08:38:33.741Z,20.55
2019-04-01T08:40:08.579Z,21.12
2019-04-01T08:41:42.794Z,20.23
2019-04-01T08:43:17.217Z,19.98
2019-04-01T08:44:51.532Z,18.55
2019-04-01T08:46:25.760Z,18.12
2019-04-01T08:48:00.053Z,18.52
2019-04-01T08:49:34.773Z,17.50
2019-04-01T08:51:09.156Z,17.92
2019-04-01T08:52:44.352Z,16.02
2019-04-01T08:54:18.584Z,15.08
2019-04-01T08:56:00.542Z,14.83
2019-04-01T08:57:28.869Z,15.38
2019-04-01T08:59:03.174Z,14.87
2019-04-01T09:00:37.464Z,13.03
2019-04-01T09:02:18.001Z,11.68
2019-04-01T09:03:48.064Z,12.18
2019-04-01T09:05:22.312Z,11.15
2019-04-01T09:06:56.567Z,11.48
2019-04-01T09:08:31.688Z,12.05
2019-04-01T09:10:07.514Z,11.05
2019-04-01T09:11:42.428Z,9.35
2019-04-01T09:13:16.751Z,10.45
2019-04-01T09:14:52.562Z,10.03
2019-04-01T09:16:26.851Z,8.98
2019-04-01T09:18:01.087Z,8.85
2019-04-01T09:19:35.382Z,7.72
2019-04-01T09:21:10.159Z,7.42
2019-04-01T09:22:44.446Z,7.55
2019-04-01T09:24:18.666Z,7.33
2019-04-01T09:25:52.919Z,7.55
2019-04-01T09:27:27.711Z,7.30
2019-04-01T09:29:01.973Z,6.55
2019-04-01T09:30:36.268Z,6.87
2019-04-01T09:32:10.541Z,7.53
2019-04-01T09:33:45.770Z,8.28
2019-04-01T09:35:19.943Z,7.12
2019-04-01T09:36:54.219Z,7.78
2019-04-01T09:38:28.482Z,7.65
2019-04-01T09:40:03.426Z,7.58
2019-04-01T09:41:37.706Z,7.28
2019-04-01T09:43:14.117Z,7.05
2019-04-01T09:44:47.906Z,8.53
2019-04-01T09:46:22.510Z,7.55
2019-04-01T09:47:56.754Z,7.10
2019-04-01T09:49:31.038Z,6.33
2019-04-01T09:51:05.217Z,6.45
2019-04-01T09:52:39.870Z,7.12
2019-04-01T09:54:14.073Z,6.70
2019-04-01T09:55:49.669Z,7.05
2019-04-01T09:57:23.897Z,6.42
2019-04-01T09:58:58.434Z,6.62
2019-04-01T10:00:32.647Z,6.15
2019-04-01T10:02:06.974Z,6.25
2019-04-01T10:03:41.207Z,7.05
2019-04-01T10:05:16.277Z,6.70
2019-04-01T10:06:50.530Z,6.87
2019-04-01T10:08:25.353Z,7.15
2019-04-01T10:09:59.643Z,5.85
2019-04-01T10:11:34.149Z,5.60
2019-04-01T10:13:08.433Z,6.83
2019-04-01T10:14:42.936Z,6.65
2019-04-01T10:16:17.146Z,6.83
2019-04-01T10:17:51.606Z,6.42
2019-04-01T10:19:25.870Z,6.47
2019-04-01T10:21:00.138Z,8.15
2019-04-01T10:22:34.334Z,6.20
2019-04-01T10:24:08.950Z,6.60
2019-04-01T10:25:43.215Z,8.28
2019-04-01T10:27:17.495Z,6.53
2019-04-01T10:28:51.734Z,6.90
2019-04-01T10:30:26.379Z,6.20
2019-04-01T10:32:00.574Z,6.00
2019-04-01T10:33:36.384Z,6.95
2019-04-01T10:35:12.132Z,7.22
2019-04-01T10:36:46.719Z,6.12
2019-04-01T10:38:20.910Z,7.15
2019-04-01T10:39:55.156Z,6.30
2019-04-01T10:41:29.442Z,6.60
2019-04-01T10:43:03.935Z,5.45
2019-04-01T10:44:38.142Z,5.42
2019-04-01T10:46:12.643Z,5.97
2019-04-01T10:47:47.145Z,6.67
2019-04-01T10:49:21.668Z,6.50
2019-04-01T10:50:55.828Z,6.12
2019-04-01T10:52:30.087Z,6.15
2019-04-01T10:54:04.403Z,7.10
2019-04-01T10:55:38.719Z,6.72
2019-04-01T10:57:13.044Z,6.45
2019-04-01T10:58:47.367Z,6.75
2019-04-01T11:00:21.567Z,6.58
2019-04-01T11:01:55.984Z,6.25
2019-04-01T11:03:30.198Z,6.80
2019-04-01T11:05:07.146Z,7.10
2019-04-01T11:06:41.344Z,7.85
2019-04-01T11:08:15.791Z,6.90
2019-04-01T11:09:50.057Z,7.75
2019-04-01T11:11:24.283Z,7.90
2019-04-01T11:12:58.506Z,8.05
2019-04-01T11:14:33.053Z,6.92
2019-04-01T11:16:07.334Z,7.22
2019-04-01T11:17:41.554Z,7.30
2019-04-01T11:19:15.829Z,6.90
2019-04-01T11:20:50.119Z,7.53
2019-04-01T11:22:24.356Z,7.05
2019-04-01T11:23:58.574Z,7.10
2019-04-01T11:25:33.189Z,7.55
2019-04-01T11:27:07.571Z,7.78
2019-04-01T11:28:41.783Z,7.35
2019-04-01T11:30:16.574Z,6.30
2019-04-01T11:31:50.986Z,6.75
2019-04-01T11:33:25.497Z,7.55
2019-04-01T11:34:59.824Z,7.95
2019-04-01T11:36:34.052Z,8.88
2019-04-01T11:38:08.301Z,8.15
2019-04-01T11:39:42.758Z,8.50
2019-04-01T11:41:17.357Z,8.50
2019-04-01T11:42:52.925Z,7.92
2019-04-01T11:44:27.588Z,7.87
2019-04-01T11:46:02.662Z,8.13
2019-04-01T11:47:36.941Z,8.15
2019-04-01T11:49:11.211Z,8.10
2019-04-01T11:50:47.782Z,7.42
2019-04-01T11:52:21.734Z,7.17
2019-04-01T11:53:56.006Z,7.50
2019-04-01T11:55:30.214Z,7.70
2019-04-01T11:57:04.448Z,7.45
2019-04-01T11:58:38.873Z,6.97
2019-04-01T12:00:14.929Z,7.67
2019-04-01T12:01:49.220Z,8.40
2019-04-01T12:03:23.899Z,8.30
2019-04-01T12:04:58.271Z,7.12
2019-04-01T12:06:32.489Z,7.85
2019-04-01T12:08:06.714Z,7.78
2019-04-01T12:09:41.006Z,7.47
2019-04-01T12:11:15.425Z,7.97
2019-04-01T12:12:49.799Z,8.03
2019-04-01T12:14:24.618Z,7.20
2019-04-01T12:15:58.946Z,7.55
2019-04-01T12:17:33.468Z,6.28
2019-04-01T12:19:07.719Z,6.17
2019-04-01T12:20:41.939Z,6.80
2019-04-01T12:22:19.687Z,6.90
2019-04-01T12:23:52.360Z,7.42
2019-04-01T12:25:26.616Z,6.50
2019-04-01T12:27:00.838Z,5.22
2019-04-01T12:28:36.711Z,5.67
2019-04-01T12:30:11.904Z,6.25
2019-04-01T12:31:46.200Z,6.58
2019-04-01T12:33:20.465Z,7.55
2019-04-01T12:34:54.664Z,8.03
2019-04-01T12:36:29.079Z,8.93
2019-04-01T12:38:03.456Z,8.13
2019-04-01T12:39:37.674Z,10.45
2019-04-01T12:41:12.030Z,10.50
2019-04-01T12:42:46.934Z,8.53
2019-04-01T12:44:22.356Z,11.00
2019-04-01T12:45:56.677Z,10.28
2019-04-01T12:47:31.017Z,14.07
2019-04-01T12:49:05.377Z,11.05
2019-04-01T12:50:39.622Z,8.50
2019-04-01T12:52:13.912Z,9.10
2019-04-01T12:53:48.237Z,7.53
2019-04-01T12:55:22.769Z,10.93
2019-04-01T12:56:57.099Z,10.05
2019-04-01T12:58:31.398Z,10.80
2019-04-01T13:00:09.582Z,18.55
2019-04-01T13:01:44.055Z,23.00
2019-04-01T13:03:18.704Z,13.43
2019-04-01T13:04:54.271Z,9.08
2019-04-01T13:06:28.550Z,9.18
2019-04-01T13:08:03.205Z,8.35
2019-04-01T13:09:37.502Z,9.10
2019-04-01T13:11:11.727Z,8.35
2019-04-01T13:12:46.473Z,9.00
2019-04-01T13:14:21.370Z,10.50
2019-04-01T13:15:55.603Z,9.00
2019-04-01T13:17:29.850Z,9.28
2019-04-01T13:19:04.112Z,9.50
2019-04-01T13:20:38.617Z,9.35
2019-04-01T13:22:12.917Z,8.35
2019-04-01T13:23:47.137Z,9.00
2019-04-01T13:25:21.338Z,8.35
2019-04-01T13:26:55.735Z,8.88
2019-04-01T13:28:30.388Z,9.68
2019-04-01T13:30:06.408Z,9.08
2019-04-01T13:31:40.622Z,10.40
2019-04-01T13:33:15.146Z,8.85
2019-04-01T13:34:49.491Z,8.93
2019-04-01T13:36:23.713Z,10.32
2019-04-01T13:37:58.055Z,9.75
2019-04-01T13:39:32.803Z,8.20
2019-04-01T13:41:06.990Z,9.70
2019-04-01T13:42:41.281Z,8.75
2019-04-01T13:44:15.584Z,10.15
2019-04-01T13:45:50.309Z,10.00
2019-04-01T13:47:24.830Z,9.63
2019-04-01T13:49:03.993Z,9.03
2019-04-01T13:50:35.022Z,9.35
2019-04-01T13:52:11.931Z,10.20
2019-04-01T13:53:46.185Z,10.20
2019-04-01T13:55:20.456Z,9.98
2019-04-01T13:56:56.042Z,9.78
2019-04-01T13:58:31.697Z,9.65
2019-04-01T14:00:07.702Z,9.35
2019-04-01T14:01:41.990Z,10.53
2019-04-01T14:03:17.213Z,8.53
2019-04-01T14:04:52.017Z,7.87
2019-04-01T14:06:26.293Z,9.05
2019-04-01T14:08:00.478Z,9.65
2019-04-01T14:09:34.697Z,8.70
2019-04-01T14:11:09.176Z,9.13
2019-04-01T14:12:43.453Z,8.98
2019-04-01T14:14:17.738Z,10.28
2019-04-01T14:15:51.947Z,8.83
2019-04-01T14:17:28.501Z,9.28
2019-04-01T14:19:02.743Z,10.18
2019-04-01T14:20:36.970Z,10.60
2019-04-01T14:22:11.272Z,10.03
2019-04-01T14:23:46.129Z,9.53
2019-04-01T14:25:21.282Z,13.30
2019-04-01T14:26:56.987Z,9.93
2019-04-01T14:28:31.203Z,11.90
2019-04-01T14:30:07.638Z,10.72
2019-04-01T14:31:41.849Z,9.90
2019-04-01T14:33:16.205Z,10.13
2019-04-01T14:34:50.660Z,10.18
2019-04-01T14:36:25.395Z,10.10
2019-04-01T14:37:59.622Z,8.85
2019-04-01T14:39:34.929Z,9.20
2019-04-01T14:41:09.315Z,9.10
2019-04-01T14:42:46.353Z,11.50
2019-04-01T14:44:19.632Z,10.08
2019-04-01T14:45:53.945Z,9.40
2019-04-01T14:47:28.264Z,10.13
2019-04-01T14:49:04.122Z,9.20
2019-04-01T14:50:38.353Z,8.45
2019-04-01T14:52:12.617Z,8.80
2019-04-01T14:53:46.910Z,8.75
2019-04-01T14:55:21.438Z,8.83
2019-04-01T14:56:56.268Z,9.40
2019-04-01T14:58:31.267Z,9.40
2019-04-01T15:00:08.442Z,9.43
2019-04-01T15:01:42.788Z,9.98
2019-04-01T15:03:17.040Z,9.28
2019-04-01T15:04:53.423Z,9.60
2019-04-01T15:06:27.657Z,9.23
2019-04-01T15:08:02.051Z,8.85
2019-04-01T15:09:36.324Z,9.78
2019-04-01T15:11:12.171Z,8.65
2019-04-01T15:12:46.603Z,9.75
2019-04-01T15:14:20.951Z,8.45
2019-04-01T15:15:55.222Z,9.13
2019-04-01T15:17:29.492Z,9.33
2019-04-01T15:19:03.706Z,9.70
2019-04-01T15:20:38.397Z,9.83
2019-04-01T15:22:12.678Z,9.58
2019-04-01T15:23:47.018Z,9.53
2019-04-01T15:25:21.265Z,8.58
2019-04-01T15:26:55.847Z,8.80
2019-04-01T15:28:30.598Z,8.25
2019-04-01T15:30:08.433Z,8.33
2019-04-01T15:31:42.669Z,12.15
2019-04-01T15:33:32.005Z,10.05
2019-04-01T15:35:07.861Z,9.65
2019-04-01T15:36:42.088Z,11.00
2019-04-01T15:38:16.370Z,7.47
2019-04-01T15:39:51.012Z,8.13
2019-04-01T15:41:26.840Z,8.18
2019-04-01T15:43:01.203Z,8.63
2019-04-01T15:44:35.508Z,9.98
2019-04-01T15:46:13.854Z,8.83
2019-04-01T15:47:48.212Z,9.00
2019-04-01T15:49:22.511Z,9.75
2019-04-01T15:50:56.724Z,8.28
2019-04-01T15:52:30.936Z,8.58
2019-04-01T15:54:05.461Z,9.50
2019-04-01T15:55:39.679Z,8.15
2019-04-01T15:57:15.381Z,9.23
2019-04-01T15:58:50.998Z,9.95
2019-04-01T16:00:25.962Z,9.63
2019-04-01T16:02:00.199Z,10.35
2019-04-01T16:03:34.443Z,10.93
2019-04-01T16:05:08.897Z,9.70
2019-04-01T16:06:43.202Z,8.65
2019-04-01T16:08:17.470Z,8.33
2019-04-01T16:09:51.978Z,7.70
2019-04-01T16:11:26.676Z,10.72
2019-04-01T16:13:01.277Z,9.38
2019-04-01T16:14:35.538Z,12.07
2019-04-01T16:16:09.954Z,14.13
2019-04-01T16:17:44.290Z,13.30
2019-04-01T16:19:18.649Z,13.13
2019-04-01T16:20:55.035Z,18.23
2019-04-01T16:22:29.501Z,18.27
2019-04-01T16:24:03.968Z,22.48
2019-04-01T16:25:38.631Z,30.95
2019-04-01T16:27:12.879Z,29.20
2019-04-01T16:28:47.169Z,38.17
2019-04-01T16:30:21.518Z,24.65
2019-04-01T16:31:57.730Z,30.30
2019-04-01T16:33:32.481Z,37.13
2019-04-01T16:35:08.002Z,21.00
2019-04-01T16:36:42.238Z,23.38
2019-04-01T16:38:16.699Z,26.68
2019-04-01T16:39:50.977Z,28.80
2019-04-01T16:41:25.208Z,35.80
2019-04-01T16:42:59.511Z,42.25
2019-04-01T16:44:34.043Z,39.25
2019-04-01T16:46:08.341Z,59.67
2019-04-01T16:47:42.564Z,76.77
2019-04-01T16:49:16.804Z,45.40
2019-04-01T16:50:51.479Z,50.95
2019-04-01T16:52:25.803Z,51.88
2019-04-01T16:54:00.035Z,50.70
2019-04-01T16:55:36.144Z,47.08
2019-04-01T16:57:10.682Z,40.12
2019-04-01T16:58:44.917Z,41.20
2019-04-01T17:00:20.025Z,35.88
2019-04-01T17:01:57.536Z,44.08
2019-04-01T17:03:30.490Z,28.67
2019-04-01T17:05:06.086Z,31.12
2019-04-01T17:06:40.366Z,27.40
2019-04-01T17:08:15.291Z,30.12
2019-04-01T17:09:49.786Z,33.53
2019-04-01T17:11:23.988Z,32.40
2019-04-01T17:13:01.268Z,29.10
2019-04-01T17:14:35.489Z,30.43
2019-04-01T17:16:09.874Z,28.67
2019-04-01T17:17:44.317Z,23.85
2019-04-01T17:19:18.520Z,25.45
2019-04-01T17:20:52.743Z,34.18
2019-04-01T17:22:27.343Z,34.08
2019-04-01T17:24:01.646Z,30.92
2019-04-01T17:25:35.900Z,152.53
2019-04-01T17:27:13.217Z,103.58
2019-04-01T17:28:47.738Z,89.60
2019-04-01T17:30:21.987Z,79.82
2019-04-01T17:31:56.198Z,92.85
2019-04-01T17:33:30.414Z,62.95
2019-04-01T17:35:05.765Z,64.20
2019-04-01T17:36:40.115Z,47.27
2019-04-01T17:38:14.378Z,38.55
2019-04-01T17:39:48.710Z,45.12
2019-04-01T17:41:23.066Z,55.17
2019-04-01T17:42:57.305Z,80.57
2019-04-01T17:44:31.629Z,60.85
2019-04-01T17:46:06.106Z,65.42
2019-04-01T17:47:40.624Z,65.25
2019-04-01T17:49:14.860Z,66.97
2019-04-01T17:50:49.152Z,79.80
2019-04-01T17:52:24.414Z,85.05
2019-04-01T17:54:01.109Z,117.72
2019-04-01T17:55:35.675Z,105.17
2019-04-01T17:57:10.037Z,112.28
2019-04-01T17:58:44.688Z,81.82
2019-04-01T18:00:23.701Z,77.45
2019-04-01T18:01:57.956Z,70.67
2019-04-01T18:03:34.068Z,58.23
2019-04-01T18:05:11.059Z,51.98
2019-04-01T18:06:45.720Z,44.98
2019-04-01T18:08:19.949Z,43.68
2019-04-01T18:09:54.245Z,32.98
2019-04-01T18:11:28.505Z,32.88
2019-04-01T18:13:02.837Z,29.05
2019-04-01T18:14:37.138Z,27.27
2019-04-01T18:16:11.371Z,31.93
2019-04-01T18:17:45.743Z,33.65
2019-04-01T18:19:20.240Z,47.05
2019-04-01T18:20:54.496Z,53.95
2019-04-01T18:22:29.113Z,57.73
2019-04-01T18:24:03.769Z,39.08
2019-04-01T18:25:38.240Z,38.08
2019-04-01T18:27:12.506Z,31.85
2019-04-01T18:28:46.857Z,27.65
2019-04-01T18:30:21.445Z,26.68
2019-04-01T18:31:58.887Z,25.27
2019-04-01T18:33:33.125Z,27.67
2019-04-01T18:35:07.388Z,25.65
2019-04-01T18:36:41.689Z,26.82
2019-04-01T18:38:16.304Z,25.17
2019-04-01T18:39:51.421Z,18.02
2019-04-01T18:41:25.668Z,20.37
2019-04-01T18:43:00.161Z,22.62
2019-04-01T18:44:35.166Z,22.82
2019-04-01T18:46:09.461Z,21.25
2019-04-01T18:47:43.811Z,21.62
2019-04-01T18:49:18.034Z,17.77
2019-04-01T18:50:52.714Z,15.45
2019-04-01T18:52:26.996Z,14.80
2019-04-01T18:54:01.343Z,15.60
2019-04-01T18:55:35.724Z,15.68
2019-04-01T18:57:10.380Z,15.20
2019-04-01T18:58:44.589Z,13.95
2019-04-01T19:00:19.028Z,13.40
2019-04-01T19:01:53.335Z,13.72
2019-04-01T19:03:27.923Z,13.80
2019-04-01T19:05:02.135Z,15.48
2019-04-01T19:06:36.412Z,21.55
2019-04-01T19:08:10.692Z,18.92
2019-04-01T19:09:45.228Z,20.48
2019-04-01T19:11:19.386Z,17.57
2019-04-01T19:13:05.038Z,18.48
2019-04-01T19:14:29.629Z,18.12
2019-04-01T19:16:05.578Z,16.93
2019-04-01T19:17:40.202Z,18.27
2019-04-01T19:19:14.435Z,18.98
2019-04-01T19:20:56.222Z,16.30
2019-04-01T19:22:24.618Z,16.00
2019-04-01T19:23:59.961Z,18.77
2019-04-01T19:25:34.317Z,18.17
2019-04-01T19:27:08.614Z,17.35
2019-04-01T19:28:43.266Z,18.12
2019-04-01T19:30:17.959Z,25.82
2019-04-01T19:31:52.240Z,17.95
2019-04-01T19:33:26.481Z,24.18
2019-04-01T19:35:01.499Z,22.37
2019-04-01T19:36:35.709Z,21.90
2019-04-01T19:38:09.945Z,20.85
2019-04-01T19:39:44.183Z,16.02
2019-04-01T19:41:20.346Z,16.90
2019-04-01T19:42:54.890Z,39.25
2019-04-01T19:44:29.189Z,14.10
2019-04-01T19:46:03.467Z,20.65
2019-04-01T19:47:38.074Z,16.48
2019-04-01T19:49:12.402Z,17.17
2019-04-01T19:50:46.666Z,18.00
2019-04-01T19:52:22.426Z,15.60
2019-04-01T19:53:57.732Z,16.10
2019-04-01T19:55:32.017Z,17.32
2019-04-01T19:57:06.253Z,19.60
2019-04-01T19:58:40.535Z,19.98
2019-04-01T20:00:27.030Z,19.85
2019-04-01T20:01:51.489Z,19.45
2019-04-01T20:03:25.987Z,20.50
2019-04-01T20:05:00.401Z,23.62
2019-04-01T20:06:35.705Z,24.52
2019-04-01T20:08:23.612Z,24.90
2019-04-01T20:09:59.468Z,24.92
2019-04-01T20:11:40.439Z,31.00
2019-04-01T20:13:19.955Z,29.80
2019-04-01T20:15:12.538Z,27.00
2019-04-01T20:16:54.642Z,26.33
2019-04-01T20:18:28.937Z,23.35
2019-04-01T20:20:03.436Z,24.05
2019-04-01T20:21:37.916Z,25.70
2019-04-01T20:23:12.686Z,28.57
2019-04-01T20:24:47.895Z,27.90
2019-04-01T20:26:22.652Z,27.27
2019-04-01T20:27:56.949Z,27.27
2019-04-01T20:29:31.578Z,29.00